Time;durP1;ratioP1;P1;durP2;ratioP2;P2;SDS_P1;SDS_P2;PMS_P1;PMS_P2;Temp;Humidity;BMP_temperature;BMP_pressure;BME280_temperature;BME280_humidity;BME280_pressure;Samples;Min_cycle;Max_cycle;Signal;HPM_P1;HPM_P2
2022/11/11 00:00:33;;;;;;;1999.90;999.90;;;9.90;99.90;;;;;;5011982;28;20025;-83
2022/11/11 00:02:59;;;;;;;1999.90;999.90;;;9.90;99.90;;;;;;5012309;28;20437;-83
2022/11/11 00:05:26;;;;;;;1999.90;999.90;;;9.90;99.90;;;;;;5012373;28;20030;-83
2022/11/11 00:07:52;;;;;;;1999.90;999.90;;;10.00;99.90;;;;;;5015470;28;20030;-83
2022/11/11 00:10:18;;;;;;;1999.90;999.90;;;10.00;99.90;;;;;;5015469;28;20072;-83
2022/11/11 00:12:44;;;;;;;1999.90;999.90;;;10.10;99.90;;;;;;5009391;28;20030;-83
2022/11/11 00:15:10;;;;;;;1999.90;999.90;;;10.00;99.90;;;;;;4996288;28;20038;-83
2022/11/11 00:25:52;;;;;;;1999.90;999.90;;;9.70;99.90;;;;;;5014820;28;20105;-83
2022/11/11 00:28:18;;;;;;;1999.90;999.90;;;9.80;99.90;;;;;;5015241;28;20021;-83
2022/11/11 00:30:44;;;;;;;1999.90;999.90;;;9.70;99.90;;;;;;5015269;28;20053;-83
2022/11/11 00:33:09;;;;;;;1999.90;999.90;;;9.70;99.90;;;;;;5015535;28;20052;-83
2022/11/11 00:35:53;;;;;;;1999.90;999.90;;;9.70;99.90;;;;;;5015295;28;20041;-83
2022/11/11 00:41:04;;;;;;;1999.90;999.90;;;9.80;99.90;;;;;;5015299;28;20521;-83
2022/11/11 00:43:29;;;;;;;1999.90;999.90;;;9.80;99.90;;;;;;5015002;28;20034;-83
2022/11/11 00:50:57;;;;;;;1999.90;999.90;;;9.80;99.90;;;;;;5015074;28;20029;-83
2022/11/11 00:51:26;;;;;;;1999.90;999.90;;;9.60;99.90;;;;;;5015318;28;20041;-83
2022/11/11 00:53:51;;;;;;;1999.90;999.90;;;9.70;99.90;;;;;;5014574;28;20042;-83
2022/11/11 00:56:17;;;;;;;1999.90;999.90;;;9.60;99.90;;;;;;5014804;28;20026;-83
2022/11/11 00:58:43;;;;;;;1999.90;999.90;;;9.70;99.90;;;;;;5014676;28;20037;-82
2022/11/11 01:01:09;;;;;;;1999.90;999.90;;;9.70;99.90;;;;;;4997307;28;20037;-83
2022/11/11 01:03:34;;;;;;;1999.90;999.90;;;9.80;99.90;;;;;;5014770;28;20030;-83
2022/11/11 01:06:01;;;;;;;1999.90;999.90;;;9.70;99.90;;;;;;4997048;28;20125;-83
2022/11/11 01:08:27;;;;;;;1999.90;999.90;;;9.70;99.90;;;;;;5014191;28;20032;-83
2022/11/11 01:10:53;;;;;;;1999.90;999.90;;;9.70;99.90;;;;;;5014781;28;20026;-83
2022/11/11 01:13:24;;;;;;;1999.90;999.90;;;9.70;99.90;;;;;;5020219;28;20022;-83
2022/11/11 01:15:52;;;;;;;1999.90;999.90;;;9.70;99.90;;;;;;5014476;28;20037;-83
2022/11/11 01:18:23;;;;;;;1999.90;999.90;;;9.70;99.90;;;;;;5013326;28;20389;-83
2022/11/11 01:21:05;;;;;;;1999.90;999.90;;;9.70;99.90;;;;;;5014271;28;20026;-83
2022/11/11 01:23:33;;;;;;;1999.90;999.90;;;9.70;99.90;;;;;;5013095;28;20026;-83
2022/11/11 01:26:09;;;;;;;1999.90;999.90;;;9.60;99.90;;;;;;5014071;28;20052;-83
2022/11/11 01:28:34;;;;;;;1999.90;999.90;;;9.60;99.90;;;;;;4996526;28;20049;-83
2022/11/11 01:31:02;;;;;;;1999.90;999.90;;;9.70;99.90;;;;;;5014464;28;20065;-83
2022/11/11 01:33:27;;;;;;;1999.90;999.90;;;9.70;99.90;;;;;;5014315;28;20022;-83
2022/11/11 01:35:53;;;;;;;1999.90;999.90;;;9.70;99.90;;;;;;5013999;28;20500;-83
2022/11/11 01:38:18;;;;;;;1999.90;999.90;;;9.70;99.90;;;;;;5013615;28;20393;-83
2022/11/11 01:40:46;;;;;;;1999.90;999.90;;;9.70;99.90;;;;;;5013761;28;20482;-83
2022/11/11 01:43:20;;;;;;;1999.90;999.90;;;9.70;99.90;;;;;;4996359;28;20073;-83
2022/11/11 01:45:59;;;;;;;1999.90;999.90;;;9.60;99.90;;;;;;4976849;28;20397;-83
2022/11/11 01:51:22;;;;;;;1999.90;999.90;;;9.50;99.90;;;;;;4994592;28;20114;-83
2022/11/11 01:53:55;;;;;;;1999.90;999.90;;;9.50;99.90;;;;;;4993767;28;20061;-83
2022/11/11 01:56:21;;;;;;;1999.90;999.90;;;9.40;99.90;;;;;;4994070;28;20109;-83
2022/11/11 01:58:48;;;;;;;1999.90;999.90;;;9.30;99.90;;;;;;4994223;28;20117;-83
2022/11/11 02:01:13;;;;;;;1999.90;999.90;;;9.20;99.90;;;;;;4994305;28;20028;-83
2022/11/11 02:05:40;;;;;;;1999.90;999.90;;;9.20;99.90;;;;;;4994080;28;20452;-83
2022/11/11 02:06:27;;;;;;;1999.90;999.90;;;9.10;99.90;;;;;;4993818;28;20379;-83
2022/11/11 02:08:53;;;;;;;1999.90;999.90;;;9.10;99.90;;;;;;4976378;28;20063;-83
2022/11/11 02:14:34;;;;;;;1999.90;999.90;;;9.10;99.90;;;;;;4995352;28;20053;-83
2022/11/11 02:16:51;;;;;;;1999.90;999.90;;;9.10;99.90;;;;;;5018471;28;20424;-83
2022/11/11 02:19:30;;;;;;;1999.90;999.90;;;9.10;99.90;;;;;;5033382;28;20029;-83
2022/11/11 02:22:00;;;;;;;1999.90;999.90;;;9.10;99.90;;;;;;5032284;28;20033;-83
2022/11/11 02:24:29;;;;;;;1999.90;999.90;;;9.00;99.90;;;;;;5031739;28;20087;-83
2022/11/11 02:26:57;;;;;;;1999.90;999.90;;;9.00;99.90;;;;;;5032917;28;20120;-83
2022/11/11 02:29:23;;;;;;;1999.90;999.90;;;9.00;99.90;;;;;;5032140;28;20496;-83
2022/11/11 02:31:49;;;;;;;1999.90;999.90;;;9.00;99.90;;;;;;5015052;28;20029;-83
2022/11/11 02:34:14;;;;;;;1999.90;999.90;;;8.90;99.90;;;;;;5016412;28;20030;-83
2022/11/11 02:36:42;;;;;;;1999.90;999.90;;;8.70;99.90;;;;;;4995137;28;20030;-83
2022/11/11 02:39:08;;;;;;;1999.90;999.90;;;8.70;99.90;;;;;;5012741;28;20030;-83
2022/11/11 02:44:18;;;;;;;1999.90;999.90;;;8.90;99.90;;;;;;5012377;28;20588;-83
2022/11/11 02:46:43;;;;;;;1999.90;999.90;;;8.90;99.90;;;;;;5013044;28;20109;-83
2022/11/11 02:49:09;;;;;;;1999.90;999.90;;;8.90;99.90;;;;;;5012720;28;20026;-83
2022/11/11 02:51:35;;;;;;;1999.90;999.90;;;8.90;99.90;;;;;;5013035;28;20022;-83
2022/11/11 02:54:00;;;;;;;1999.90;999.90;;;8.80;99.90;;;;;;5012270;28;20049;-83
2022/11/11 02:59:10;;;;;;;1999.90;999.90;;;8.60;99.90;;;;;;5012777;28;20053;-83
2022/11/11 03:01:35;;;;;;;1999.90;999.90;;;8.60;99.90;;;;;;5012738;28;20477;-83
2022/11/11 03:04:01;;;;;;;1999.90;999.90;;;8.60;99.90;;;;;;4994626;28;20033;-83
2022/11/11 03:06:27;;;;;;;1999.90;999.90;;;8.70;99.90;;;;;;5012641;28;20029;-83
2022/11/11 03:08:52;;;;;;;1999.90;999.90;;;8.70;99.90;;;;;;4994693;28;20059;-83
2022/11/11 03:11:27;;;;;;;1999.90;999.90;;;8.70;99.90;;;;;;5013930;28;20029;-83
2022/11/11 03:13:54;;;;;;;1999.90;999.90;;;8.70;99.90;;;;;;5002201;28;20474;-83
2022/11/11 03:19:04;;;;;;;1999.90;999.90;;;8.90;99.90;;;;;;5012552;28;20083;-83
2022/11/11 03:21:29;;;;;;;1999.90;999.90;;;8.80;99.90;;;;;;5012262;28;20116;-83
2022/11/11 03:23:55;;;;;;;1999.90;999.90;;;8.60;99.90;;;;;;4993439;28;20038;-83
2022/11/11 03:26:20;;;;;;;1999.90;999.90;;;8.60;99.90;;;;;;4994486;28;20117;-83
2022/11/11 03:28:46;;;;;;;1999.90;999.90;;;8.60;99.90;;;;;;5012306;28;20033;-83
2022/11/11 03:31:12;;;;;;;1999.90;999.90;;;8.60;99.90;;;;;;5012666;28;20053;-83
2022/11/11 03:33:37;;;;;;;1999.90;999.90;;;8.60;99.90;;;;;;5012303;28;20053;-83
2022/11/11 03:36:03;;;;;;;1999.90;999.90;;;8.60;99.90;;;;;;5012262;28;20029;-83
2022/11/11 03:38:29;;;;;;;1999.90;999.90;;;8.60;99.90;;;;;;5012215;28;20068;-83
2022/11/11 03:40:56;;;;;;;1999.90;999.90;;;8.60;99.90;;;;;;4995369;28;20417;-83
2022/11/11 03:43:24;;;;;;;1999.90;999.90;;;8.70;99.90;;;;;;5016222;28;20022;-83
2022/11/11 03:45:57;;;;;;;1999.90;999.90;;;8.70;99.90;;;;;;5016236;28;20034;-83
2022/11/11 03:48:24;;;;;;;1999.90;999.90;;;8.60;99.90;;;;;;4998056;28;20029;-83
2022/11/11 03:50:50;;;;;;;1999.90;999.90;;;8.50;99.90;;;;;;5015974;28;20033;-83
2022/11/11 03:53:18;;;;;;;1999.90;999.90;;;8.50;99.90;;;;;;5016202;28;20021;-83
2022/11/11 03:55:44;;;;;;;1999.90;999.90;;;8.40;99.90;;;;;;5015323;28;20042;-83
2022/11/11 03:58:10;;;;;;;1999.90;999.90;;;8.40;99.90;;;;;;5015694;28;20037;-83
2022/11/11 04:00:36;;;;;;;1999.90;999.90;;;8.50;99.90;;;;;;4998193;28;20037;-83
2022/11/11 04:11:28;;;;;;;1999.90;999.90;;;8.50;99.90;;;;;;5017287;28;20059;-83
2022/11/11 04:16:42;;;;;;;1999.90;999.90;;;8.50;99.90;;;;;;5006373;28;20037;-83
2022/11/11 04:21:51;;;;;;;1999.90;999.90;;;8.40;99.90;;;;;;5034898;28;20033;-83
2022/11/11 04:27:06;;;;;;;1999.90;999.90;;;8.50;99.90;;;;;;5035632;28;20084;-83
2022/11/11 04:29:32;;;;;;;1999.90;999.90;;;8.40;99.90;;;;;;5033694;28;20053;-83
2022/11/11 04:34:52;;;;;;;1999.90;999.90;;;8.40;99.90;;;;;;5035265;28;20047;-83
2022/11/11 04:37:19;;;;;;;1999.90;999.90;;;8.30;99.90;;;;;;5034909;28;20404;-83
2022/11/11 04:42:31;;;;;;;1999.90;999.90;;;8.20;99.90;;;;;;5035105;28;20036;-83
2022/11/11 04:48:00;;;;;;;1999.90;999.90;;;8.10;99.90;;;;;;5015459;28;20029;-83
2022/11/11 04:50:31;;;;;;;1999.90;999.90;;;8.10;99.90;;;;;;5014475;28;20072;-83
2022/11/11 04:52:58;;;;;;;1999.90;999.90;;;8.10;99.90;;;;;;4996294;28;20057;-83
2022/11/11 04:58:09;;;;;;;1999.90;999.90;;;8.10;99.90;;;;;;5015007;28;20064;-83
2022/11/11 05:00:36;;;;;;;1999.90;999.90;;;8.00;99.90;;;;;;4996944;28;20021;-83
2022/11/11 05:03:17;;;;;;;1999.90;999.90;;;8.10;99.90;;;;;;5013828;28;20489;-83
2022/11/11 05:11:18;;;;;;;1999.90;999.90;;;8.10;99.90;;;;;;5014874;28;20037;-83
2022/11/11 05:22:08;;;;;;;1999.90;999.90;;;8.00;99.90;;;;;;5014027;28;20420;-83
2022/11/11 05:27:19;;;;;;;1999.90;999.90;;;7.90;99.90;;;;;;5013703;28;20033;-83
2022/11/11 05:29:45;;;;;;;1999.90;999.90;;;8.00;99.90;;;;;;5014146;28;20025;-83
2022/11/11 05:32:15;;;;;;;1999.90;999.90;;;8.00;99.90;;;;;;5014091;28;20408;-83
2022/11/11 05:34:41;;;;;;;1999.90;999.90;;;8.00;99.90;;;;;;5014124;28;20030;-83
2022/11/11 05:37:07;;;;;;;1999.90;999.90;;;8.00;99.90;;;;;;5013974;28;20038;-83
2022/11/11 05:39:32;;;;;;;1999.90;999.90;;;8.00;99.90;;;;;;5014324;28;20366;-83
2022/11/11 05:41:59;;;;;;;1999.90;999.90;;;8.10;99.90;;;;;;5014125;28;20045;-83
2022/11/11 05:44:25;;;;;;;1999.90;999.90;;;8.00;99.90;;;;;;5013607;28;20105;-83
2022/11/11 05:46:50;;;;;;;1999.90;999.90;;;7.90;99.90;;;;;;5013583;28;20587;-83
2022/11/11 05:49:16;;;;;;;1999.90;999.90;;;7.80;99.90;;;;;;5013971;28;20025;-83
2022/11/11 05:51:43;;;;;;;1999.90;999.90;;;7.80;99.90;;;;;;5013847;28;20033;-83
2022/11/11 05:54:09;;;;;;;1999.90;999.90;;;7.80;99.90;;;;;;5013377;28;20042;-83
2022/11/11 05:56:35;;;;;;;1999.90;999.90;;;7.70;99.90;;;;;;5013544;28;20049;-83
2022/11/11 05:59:00;;;;;;;1999.90;999.90;;;7.70;99.90;;;;;;5013367;28;20026;-83
2022/11/11 06:01:26;;;;;;;1999.90;999.90;;;7.70;99.90;;;;;;5013905;28;20017;-83
2022/11/11 06:03:51;;;;;;;1999.90;999.90;;;7.70;99.90;;;;;;5013420;28;20404;-83
2022/11/11 06:06:17;;;;;;;1999.90;999.90;;;7.70;99.90;;;;;;5013771;28;20033;-83
2022/11/11 06:08:43;;;;;;;1999.90;999.90;;;7.70;99.90;;;;;;5013127;28;20080;-83
2022/11/11 06:11:09;;;;;;;1999.90;999.90;;;7.70;99.90;;;;;;4995113;28;20026;-82
2022/11/11 06:13:34;;;;;;;1999.90;999.90;;;7.70;99.90;;;;;;5008127;28;20046;-83
2022/11/11 06:16:00;;;;;;;1999.90;999.90;;;7.70;99.90;;;;;;4994392;28;20069;-83
2022/11/11 06:18:26;;;;;;;1999.90;999.90;;;7.70;99.90;;;;;;5012998;28;20068;-83
2022/11/11 06:20:56;;;;;;;1999.90;999.90;;;7.70;99.90;;;;;;5013053;28;20025;-83
2022/11/11 06:23:23;;;;;;;1999.90;999.90;;;7.60;99.90;;;;;;5012935;28;20489;-83
2022/11/11 06:28:33;;;;;;;1999.90;999.90;;;7.60;99.90;;;;;;5013034;28;20036;-83
2022/11/11 06:30:59;;;;;;;1999.90;999.90;;;7.60;99.90;;;;;;5013130;28;20089;-83
2022/11/11 06:33:24;;;;;;;1999.90;999.90;;;7.60;99.90;;;;;;5013273;28;20030;-83
2022/11/11 06:35:51;;;;;;;1999.90;999.90;;;7.60;99.90;;;;;;5012827;28;20018;-83
2022/11/11 06:38:17;;;;;;;1999.90;999.90;;;7.60;99.90;;;;;;4994993;28;20021;-83
2022/11/11 06:40:43;;;;;;;1999.90;999.90;;;7.60;99.90;;;;;;4994799;28;20037;-83
2022/11/11 06:43:09;;;;;;;1999.90;999.90;;;7.60;99.90;;;;;;4995140;28;20045;-83
2022/11/11 06:45:35;;;;;;;1999.90;999.90;;;7.50;99.90;;;;;;5012852;28;20075;-83
2022/11/11 06:48:02;;;;;;;1999.90;999.90;;;7.50;99.90;;;;;;5012738;28;20022;-83
2022/11/11 06:50:28;;;;;;;1999.90;999.90;;;7.40;99.90;;;;;;5012648;28;20508;-83
2022/11/11 06:52:54;;;;;;;1999.90;999.90;;;7.50;99.90;;;;;;5012635;28;20058;-82
2022/11/11 06:55:20;;;;;;;1999.90;999.90;;;7.50;99.90;;;;;;5012848;28;20044;-83
2022/11/11 06:57:46;;;;;;;1999.90;999.90;;;7.40;99.90;;;;;;5012828;28;20104;-83
2022/11/11 07:00:12;;;;;;;1999.90;999.90;;;7.40;99.90;;;;;;5012610;28;20029;-83
2022/11/11 07:02:37;;;;;;;1999.90;999.90;;;7.40;99.90;;;;;;4994979;28;20117;-83
2022/11/11 07:05:03;;;;;;;1999.90;999.90;;;7.40;99.90;;;;;;5012870;28;20112;-83
2022/11/11 07:07:29;;;;;;;1999.90;999.90;;;7.40;99.90;;;;;;4994866;28;20036;-83
2022/11/11 07:09:55;;;;;;;1999.90;999.90;;;7.30;99.90;;;;;;5012339;28;20503;-83
2022/11/11 07:12:21;;;;;;;1999.90;999.90;;;7.30;99.90;;;;;;5012094;28;20106;-83
2022/11/11 07:14:47;;;;;;;1999.90;999.90;;;7.30;99.90;;;;;;5012176;28;20022;-83
2022/11/11 07:17:13;;;;;;;1999.90;999.90;;;7.20;99.90;;;;;;5011676;28;20037;-83
2022/11/11 07:19:38;;;;;;;1999.90;999.90;;;7.10;99.90;;;;;;5012676;28;20084;-83
2022/11/11 07:22:04;;;;;;;1999.90;999.90;;;7.10;99.90;;;;;;5011715;28;20108;-83
2022/11/11 07:24:30;;;;;;;1999.90;999.90;;;7.10;99.90;;;;;;5011360;28;20034;-83
2022/11/11 07:26:56;;;;;;;1999.90;999.90;;;7.10;99.90;;;;;;5011872;28;20053;-83
2022/11/11 07:29:21;;;;;;;1999.90;999.90;;;7.10;99.90;;;;;;5011543;28;20018;-83
2022/11/11 07:31:47;;;;;;;1999.90;999.90;;;7.10;99.90;;;;;;5011866;28;20093;-83
2022/11/11 07:34:13;;;;;;;1999.90;999.90;;;7.10;99.90;;;;;;4994575;28;20120;-83
2022/11/11 07:36:38;;;;;;;1999.90;999.90;;;7.20;99.90;;;;;;4994735;28;20120;-83
2022/11/11 07:39:04;;;;;;;1999.90;999.90;;;7.20;99.90;;;;;;5011896;28;20041;-83
2022/11/11 07:41:29;;;;;;;1999.90;999.90;;;7.30;99.90;;;;;;5011344;28;20049;-83
2022/11/11 07:43:55;;;;;;;1999.90;999.90;;;7.30;99.90;;;;;;5011924;28;20102;-83
2022/11/11 07:46:21;;;;;;;1999.90;999.90;;;7.40;99.90;;;;;;5012187;28;20026;-83
2022/11/11 07:48:46;;;;;;;1999.90;999.90;;;7.40;99.90;;;;;;5012130;28;20026;-83
2022/11/11 07:51:12;;;;;;;1999.90;999.90;;;7.50;99.90;;;;;;5012093;28;20026;-83
2022/11/11 07:53:38;;;;;;;1999.90;999.90;;;7.50;99.90;;;;;;4994362;28;20030;-83
2022/11/11 07:56:03;;;;;;;1999.90;999.90;;;7.60;99.90;;;;;;5012093;28;20026;-83
2022/11/11 07:58:29;;;;;;;1999.90;999.90;;;7.60;99.90;;;;;;4994310;28;20026;-83
2022/11/11 08:00:57;;;;;;;1999.90;999.90;;;7.70;99.90;;;;;;4994045;28;20030;-83
2022/11/11 08:03:23;;;;;;;1999.90;999.90;;;7.80;99.90;;;;;;4994110;28;20441;-83
2022/11/11 08:05:49;;;;;;;1999.90;999.90;;;7.90;99.90;;;;;;5011582;28;20088;-83
2022/11/11 08:08:14;;;;;;;1999.90;999.90;;;7.90;99.90;;;;;;5011588;28;20021;-83
2022/11/11 08:10:40;;;;;;;1999.90;999.90;;;8.00;99.90;;;;;;4994601;28;20497;-83
2022/11/11 08:15:49;;;;;;;1999.90;999.90;;;8.30;99.90;;;;;;4992754;28;20041;-83
2022/11/11 08:18:15;;;;;;;1999.90;999.90;;;8.50;99.90;;;;;;5008651;28;20050;-83
2022/11/11 08:20:41;;;;;;;1999.90;999.90;;;8.50;99.90;;;;;;5011725;28;20041;-83
2022/11/11 08:23:09;;;;;;;1999.90;999.90;;;8.60;99.90;;;;;;5011316;28;20037;-83
2022/11/11 08:25:35;;;;;;;1999.90;999.90;;;8.60;99.90;;;;;;5011912;28;20402;-83
2022/11/11 08:28:03;;;;;;;1999.90;999.90;;;8.70;99.90;;;;;;4995326;28;20018;-83
2022/11/11 08:30:30;;;;;;;1999.90;999.90;;;8.70;99.90;;;;;;4997615;28;20030;-83
2022/11/11 08:32:57;;;;;;;1999.90;999.90;;;8.80;99.90;;;;;;5015585;28;20018;-83
2022/11/11 08:35:23;;;;;;;1999.90;999.90;;;8.90;99.90;;;;;;5015417;28;20390;-83
2022/11/11 08:37:49;;;;;;;1999.90;999.90;;;9.00;99.90;;;;;;4997338;28;20028;-83
2022/11/11 08:40:15;;;;;;;1999.90;999.90;;;9.00;99.90;;;;;;5014711;28;20065;-83
2022/11/11 08:42:41;;;;;;;1999.90;999.90;;;9.10;99.90;;;;;;5015048;28;20547;-83
2022/11/11 08:45:08;;;;;;;1999.90;999.90;;;9.20;99.90;;;;;;5014956;28;20033;-83
2022/11/11 08:47:34;;;;;;;1999.90;999.90;;;9.30;99.90;;;;;;5015336;28;20068;-83
2022/11/11 08:50:00;;;;;;;1999.90;999.90;;;9.40;99.90;;;;;;5014940;28;20030;-83
2022/11/11 08:52:26;;;;;;;1999.90;999.90;;;9.50;99.90;;;;;;5014643;28;20073;-83
2022/11/11 08:54:51;;;;;;;1999.90;999.90;;;9.60;99.90;;;;;;5014739;28;20453;-83
2022/11/11 08:57:17;;;;;;;1999.90;999.90;;;9.70;99.90;;;;;;4997338;28;20121;-83
2022/11/11 08:59:43;;;;;;;1999.90;999.90;;;9.80;99.90;;;;;;4997276;28;20022;-83
2022/11/11 09:02:11;;;;;;;1999.90;999.90;;;9.90;99.90;;;;;;4996365;28;20038;-83
2022/11/11 09:04:37;;;;;;;1999.90;999.90;;;10.10;99.90;;;;;;4997232;28;20397;-83
2022/11/11 09:07:03;;;;;;;1999.90;999.90;;;10.20;99.90;;;;;;5014377;28;20401;-83
2022/11/11 09:09:29;;;;;;;1999.90;999.90;;;10.20;99.90;;;;;;5014726;28;20527;-83
2022/11/11 09:11:54;;;;;;;1999.90;999.90;;;10.30;99.90;;;;;;4996512;28;20113;-83
2022/11/11 09:14:20;;;;;;;1999.90;999.90;;;10.40;99.90;;;;;;4993284;28;20030;-83
2022/11/11 09:16:45;;;;;;;1999.90;999.90;;;10.50;99.90;;;;;;5001360;28;20386;-83
2022/11/11 09:19:11;;;;;;;1999.90;999.90;;;10.70;99.90;;;;;;5014443;28;20033;-83
2022/11/11 09:21:37;;;;;;;1999.90;999.90;;;10.80;99.90;;;;;;5014246;28;20036;-82
2022/11/11 09:24:03;;;;;;;1999.90;999.90;;;10.90;99.90;;;;;;5013907;28;20061;-83
2022/11/11 09:26:28;;;;;;;1999.90;999.90;;;11.10;99.90;;;;;;5014274;28;20022;-83
2022/11/11 09:28:54;;;;;;;1999.90;999.90;;;11.10;99.90;;;;;;4996615;28;20026;-83
2022/11/11 09:31:19;;;;;;;1999.90;999.90;;;11.20;99.90;;;;;;4996564;28;20037;-83
2022/11/11 09:33:45;;;;;;;1999.90;999.90;;;11.30;99.90;;;;;;4996751;28;20077;-83
2022/11/11 09:36:11;;;;;;;1999.90;999.90;;;11.40;99.90;;;;;;5014017;28;20030;-83
2022/11/11 09:38:37;;;;;;;1999.90;999.90;;;11.50;99.90;;;;;;4995779;28;20026;-82
2022/11/11 09:41:17;;;;;;;1999.90;999.90;;;11.50;99.90;;;;;;5013877;28;20041;-82
2022/11/11 09:44:02;;;;;;;1999.90;999.90;;;11.60;99.90;;;;;;5014051;28;20089;-83
2022/11/11 09:46:34;;;;;;;1999.90;999.90;;;11.70;99.90;;;;;;4996318;28;20109;-83
2022/11/11 09:49:29;;;;;;;1999.90;999.90;;;11.80;99.90;;;;;;5013912;28;20033;-83
2022/11/11 09:52:04;;;;;;;1999.90;999.90;;;11.90;99.90;;;;;;5013659;28;20060;-82
2022/11/11 09:54:56;;;;;;;1999.90;999.90;;;12.00;99.90;;;;;;5013675;28;20050;-82
2022/11/11 09:57:28;;;;;;;1999.90;999.90;;;12.10;99.90;;;;;;4983238;28;20505;-82
2022/11/11 09:59:57;;;;;;;1999.90;999.90;;;12.20;99.90;;;;;;4996083;28;20053;-82
2022/11/11 10:02:40;;;;;;;1999.90;999.90;;;12.30;99.90;;;;;;5013100;28;20030;-82
2022/11/11 10:05:06;;;;;;;;;;;12.40;99.90;;;;;;4996394;28;20034;-82
2022/11/11 10:07:49;;;;;;;1999.90;999.90;;;12.50;99.90;;;;;;5013602;28;19912;-82
2022/11/11 10:10:41;;;;;;;1999.90;999.90;;;12.60;99.90;;;;;;5013507;28;20022;-82
2022/11/11 10:13:32;;;;;;;1999.90;999.90;;;12.80;99.90;;;;;;5029322;28;20026;-82
2022/11/11 10:16:46;;;;;;;1999.90;999.90;;;12.90;99.90;;;;;;4993369;28;20034;-82
2022/11/11 10:19:56;;;;;;;1999.90;999.90;;;13.10;99.90;;;;;;4948330;28;20034;-82
2022/11/11 10:22:29;;;;;;;1999.90;999.90;;;13.30;99.90;;;;;;4879061;29;20105;-82
2022/11/11 10:25:24;;;;;;;1999.90;999.90;;;13.30;99.90;;;;;;4895507;29;20120;-82
2022/11/11 10:27:53;;;;;;;1999.90;999.90;;;13.30;99.90;;;;;;4969205;28;20042;-82
2022/11/11 10:30:25;;;;;;;1999.90;999.90;;;13.40;99.90;;;;;;4976134;28;20144;-82
2022/11/11 10:32:54;;;;;;;1999.90;999.90;;;13.60;99.90;;;;;;4993647;28;20508;-82
2022/11/11 10:35:23;;;;;;;1999.90;999.90;;;13.70;99.90;;;;;;4976328;28;20069;-83
2022/11/11 10:38:14;;;;;;;1999.90;999.90;;;13.80;99.90;;;;;;4993394;28;20040;-82
2022/11/11 10:40:48;;;;;;;1999.90;999.90;;;13.90;99.90;;;;;;4993594;28;20038;-82
2022/11/11 10:43:27;;;;;;;1999.90;999.90;;;14.00;99.90;;;;;;4975962;28;20519;-82
2022/11/11 10:46:36;;;;;;;1999.90;999.90;;;14.10;99.90;;;;;;4993337;28;20454;-82
2022/11/11 10:49:17;;;;;;;1999.90;999.90;;;14.20;99.90;;;;;;4949978;28;20047;-82
2022/11/11 10:51:51;;;;;;;1999.90;999.90;;;14.30;99.90;;;;;;4992702;28;20019;-82
2022/11/11 10:54:24;;;;;;;1999.90;999.90;;;14.40;99.90;;;;;;4991819;28;20046;-82
2022/11/11 10:57:07;;;;;;;1999.90;999.90;;;14.40;99.90;;;;;;4992637;28;20018;-82
2022/11/11 10:59:33;;;;;;;1999.90;999.90;;;14.50;99.90;;;;;;4975956;28;20041;-82
2022/11/11 11:02:08;;;;;;;1999.90;999.90;;;14.60;99.90;;;;;;4993067;28;20026;-82
2022/11/11 11:04:44;;;;;;;1999.90;999.90;;;14.70;99.90;;;;;;4990980;28;20041;-83
2022/11/11 11:07:15;;;;;;;1999.90;999.90;;;14.80;99.90;;;;;;4993083;28;20172;-82
2022/11/11 11:09:56;;;;;;;1999.90;999.90;;;15.00;99.90;;;;;;4993327;28;20019;-82
2022/11/11 11:12:59;;;;;;;1999.90;999.90;;;15.10;99.90;;;;;;4994470;28;20024;-82
2022/11/11 11:15:27;;;;;;;1999.90;999.90;;;15.20;99.90;;;;;;4991524;28;20030;-83
2022/11/11 11:18:04;;;;;;;1999.90;999.90;;;15.20;99.90;;;;;;5005798;28;20034;-82
2022/11/11 11:20:30;;;;;;;1999.90;999.90;;;15.30;99.90;;;;;;5012517;28;20037;-83
2022/11/11 11:22:58;;;;;;;1999.90;999.90;;;15.40;99.90;;;;;;4994230;28;20780;-82
2022/11/11 11:25:26;;;;;;;1999.90;999.90;;;15.60;99.90;;;;;;5012389;28;20030;-83
2022/11/11 11:28:03;;;;;;;1999.90;999.90;;;15.70;99.90;;;;;;5012705;28;20018;-83
2022/11/11 11:30:29;;;;;;;1999.90;999.90;;;15.80;99.90;;;;;;5012496;28;20029;-83
2022/11/11 11:33:00;;;;;;;1999.90;999.90;;;16.00;99.90;;;;;;5012026;28;20026;-83
2022/11/11 11:35:31;;;;;;;1999.90;999.90;;;16.10;99.90;;;;;;5012832;28;20034;-83
2022/11/11 11:37:57;;;;;;;1999.90;999.90;;;16.10;99.90;;;;;;5012498;28;20030;-82
2022/11/11 11:40:23;;;;;;;1999.90;999.90;;;16.20;99.90;;;;;;4994718;28;20037;-82
2022/11/11 11:42:48;;;;;;;1999.90;999.90;;;16.20;99.90;;;;;;5012356;28;20101;-82
2022/11/11 11:45:14;;;;;;;1999.90;999.90;;;16.30;99.90;;;;;;4994781;28;20030;-83
2022/11/11 11:47:53;;;;;;;1999.90;999.90;;;16.30;99.90;;;;;;5012460;28;20025;-83
2022/11/11 11:50:27;;;;;;;1999.90;999.90;;;16.30;99.90;;;;;;5012375;28;20026;-83
2022/11/11 11:53:04;;;;;;;1999.90;999.90;;;16.40;99.90;;;;;;4992409;28;20077;-83
2022/11/11 11:55:57;;;;;;;1999.90;999.90;;;16.30;99.90;;;;;;4992673;28;20058;-83
2022/11/11 11:58:52;;;;;;;1999.90;999.90;;;16.60;99.90;;;;;;4957835;28;20387;-83
2022/11/11 12:01:21;;;;;;;1999.90;999.90;;;16.80;99.90;;;;;;4992807;28;20034;-83
2022/11/11 12:03:58;;;;;;;1999.90;999.90;;;16.90;99.90;;;;;;4996358;28;20033;-83
2022/11/11 12:06:38;;;;;;;1999.90;999.90;;;16.90;99.90;;;;;;4996122;28;20027;-83
2022/11/11 12:09:33;;;;;;;1999.90;999.90;;;17.00;99.90;;;;;;4995999;28;20026;-83
2022/11/11 12:12:43;;;;;;;1999.90;999.90;;;16.90;99.90;;;;;;5002721;28;20022;-83
2022/11/11 12:15:30;;;;;;;1999.90;999.90;;;17.00;99.90;;;;;;5012634;28;20547;-83
2022/11/11 12:18:13;;;;;;;1999.90;999.90;;;17.20;99.90;;;;;;5015612;28;20034;-83
2022/11/11 12:20:49;;;;;;;1999.90;999.90;;;17.30;99.90;;;;;;4997942;28;20026;-83
2022/11/11 12:23:27;;;;;;;1999.90;999.90;;;17.40;99.90;;;;;;4997578;28;20400;-83
2022/11/11 12:26:11;;;;;;;1999.90;999.90;;;17.50;99.90;;;;;;5015669;28;20029;-83
2022/11/11 12:29:08;;;;;;;1999.90;999.90;;;17.60;99.90;;;;;;4997855;28;20386;-83
2022/11/11 12:31:50;;;;;;;1999.90;999.90;;;17.80;99.90;;;;;;5015794;28;20030;-83
2022/11/11 12:34:19;;;;;;;1999.90;999.90;;;17.80;99.90;;;;;;5015334;28;20029;-83
2022/11/11 12:37:07;;;;;;;1999.90;999.90;;;18.00;99.90;;;;;;5015325;28;20595;-83
2022/11/11 12:40:02;;;;;;;1999.90;999.90;;;18.20;99.90;;;;;;5015530;28;20034;-83
2022/11/11 12:42:42;;;;;;;1999.90;999.90;;;18.20;99.90;;;;;;4997567;28;20060;-82
2022/11/11 12:45:18;;;;;;;1999.90;999.90;;;18.10;99.90;;;;;;4997270;28;20041;-83
2022/11/11 12:48:12;;;;;;;1999.90;999.90;;;18.10;99.90;;;;;;4997657;28;20112;-83
2022/11/11 12:50:59;;;;;;;1999.90;999.90;;;18.10;99.90;;;;;;5015017;28;20429;-83
2022/11/11 12:53:33;;;;;;;1999.90;999.90;;;18.10;99.90;;;;;;5014711;28;20025;-83
2022/11/11 12:56:13;;;;;;;1999.90;999.90;;;18.30;99.90;;;;;;5015089;28;20462;-83
2022/11/11 12:59:05;;;;;;;1999.90;999.90;;;18.30;99.90;;;;;;5014461;28;20030;-83
2022/11/11 13:01:46;;;;;;;1999.90;999.90;;;18.30;99.90;;;;;;5015004;28;20034;-82
2022/11/11 13:04:44;;;;;;;1999.90;999.90;;;18.50;99.90;;;;;;5014715;28;20041;-83
2022/11/11 13:07:15;;;;;;;1999.90;999.90;;;18.60;99.90;;;;;;4994833;28;20100;-82
2022/11/11 13:09:54;;;;;;;1999.90;999.90;;;18.50;99.90;;;;;;5014820;28;20026;-83
2022/11/11 13:12:47;;;;;;;1999.90;999.90;;;18.80;99.90;;;;;;4996381;28;20500;-82
2022/11/11 13:15:24;;;;;;;1999.90;999.90;;;19.00;99.90;;;;;;5007091;28;20113;-83
2022/11/11 13:17:50;;;;;;;1999.90;999.90;;;19.10;99.90;;;;;;4993346;28;20501;-83
2022/11/11 13:20:40;;;;;;;1999.90;999.90;;;19.10;99.90;;;;;;4996698;28;20049;-83
2022/11/11 13:23:10;;;;;;;1999.90;999.90;;;19.10;99.90;;;;;;5013091;28;20520;-83
2022/11/11 13:25:43;;;;;;;1999.90;999.90;;;19.20;99.90;;;;;;4996723;28;20037;-83
2022/11/11 13:28:20;;;;;;;1999.90;999.90;;;19.10;99.90;;;;;;5014329;28;20026;-83
2022/11/11 13:31:04;;;;;;;1999.90;999.90;;;19.00;99.90;;;;;;5014250;28;20038;-83
2022/11/11 13:33:43;;;;;;;1999.90;999.90;;;18.90;99.90;;;;;;5014341;28;20088;-83
2022/11/11 13:36:13;;;;;;;1999.90;999.90;;;19.00;99.90;;;;;;5014175;28;20030;-83
2022/11/11 13:38:51;;;;;;;1999.90;999.90;;;19.10;99.90;;;;;;5014028;28;20430;-83
2022/11/11 13:41:36;;;;;;;1999.90;999.90;;;19.10;99.90;;;;;;5014114;28;20037;-83